Time;durP1;ratioP1;P1;durP2;ratioP2;P2;SDS_P1;SDS_P2;PMS_P1;PMS_P2;Temp;Humidity;BMP_temperature;BMP_pressure;BME280_temperature;BME280_humidity;BME280_pressure;Samples;Min_cycle;Max_cycle;Signal;HPM_P1;HPM_P2
2023/05/09 00:00:52;;;;;;;3.70;3.40;;;;;;;15.18;62.82;102286.77;109804;1268;1002083;-51
2023/05/09 00:03:19;;;;;;;4.70;4.00;;;;;;;15.17;62.78;102286.41;110294;1268;22510;-52
2023/05/09 00:05:47;;;;;;;5.40;4.20;;;;;;;15.10;62.76;102291.09;110531;1268;22390;-51
2023/05/09 00:08:14;;;;;;;3.90;3.50;;;;;;;15.05;62.85;102295.00;110567;1269;22285;-51
2023/05/09 00:10:41;;;;;;;4.50;4.00;;;;;;;15.07;62.86;102298.81;110224;1275;22158;-51
2023/05/09 00:13:08;;;;;;;5.90;4.00;;;;;;;15.06;62.83;102301.10;110503;1275;22358;-51
2023/05/09 00:15:35;;;;;;;4.20;3.80;;;;;;;15.06;62.85;102301.10;109703;1271;1002672;-51
2023/05/09 00:18:02;;;;;;;4.20;3.80;;;;;;;15.05;62.86;102301.13;110428;1271;22510;-51
2023/05/09 00:20:29;;;;;;;5.40;4.10;;;;;;;15.02;62.97;102302.57;110443;1269;22173;-52
2023/05/09 00:22:56;;;;;;;5.00;4.30;;;;;;;15.01;62.92;102305.37;110493;1274;22193;-50
2023/05/09 00:25:23;;;;;;;5.20;4.20;;;;;;;15.00;62.88;102309.42;110527;1269;22423;-51
2023/05/09 00:27:50;;;;;;;5.10;3.60;;;;;;;15.01;62.80;102312.73;110242;1271;22152;-51
2023/05/09 00:30:17;;;;;;;4.00;3.60;;;;;;;15.02;62.91;102316.20;110389;1270;22414;-51
2023/05/09 00:32:44;;;;;;;3.90;3.50;;;;;;;15.04;62.95;102319.31;110227;1275;23049;-51
2023/05/09 00:35:11;;;;;;;4.50;3.20;;;;;;;15.07;62.74;102318.39;110425;1271;22100;-50
2023/05/09 00:37:39;;;;;;;4.50;3.10;;;;;;;15.09;62.31;102322.20;110274;1275;22337;-51
2023/05/09 00:40:08;;;;;;;4.10;3.50;;;;;;;15.11;61.98;102328.13;110402;1269;22316;-50
2023/05/09 00:42:35;;;;;;;2.70;2.40;;;;;;;15.13;61.54;102324.23;110456;1274;22384;-50
2023/05/09 00:45:02;;;;;;;4.20;2.70;;;;;;;15.16;60.66;102320.16;110555;1268;22202;-51
2023/05/09 00:47:29;;;;;;;2.20;2.00;;;;;;;15.19;59.81;102315.41;110600;1266;22406;-50
2023/05/09 00:49:56;;;;;;;4.00;1.80;;;;;;;15.21;59.23;102318.33;110556;1266;23033;-50
2023/05/09 00:52:24;;;;;;;2.40;1.90;;;;;;;15.25;58.98;102319.51;110109;1274;22204;-50
2023/05/09 00:54:52;;;;;;;4.60;2.10;;;;;;;15.27;58.63;102321.74;110536;1268;22850;-50
2023/05/09 00:57:20;;;;;;;3.10;2.00;;;;;;;15.29;58.58;102322.41;110338;1271;22115;-50
2023/05/09 00:59:47;;;;;;;1.80;1.60;;;;;;;15.32;58.53;102322.54;110572;1269;22462;-50
2023/05/09 01:02:15;;;;;;;2.90;1.80;;;;;;;15.32;58.52;102324.45;110296;1272;22897;-50
2023/05/09 01:04:44;;;;;;;2.10;1.60;;;;;;;15.33;58.42;102324.81;110441;1271;22118;-51
2023/05/09 01:07:25;;;;;;;2.10;1.80;;;;;;;15.33;57.98;102323.40;110492;1272;22371;-51
2023/05/09 01:09:58;;;;;;;2.70;1.70;;;;;;;15.32;57.29;102326.38;110295;1275;22914;-50
2023/05/09 01:12:46;;;;;;;3.50;1.80;;;;;;;15.33;56.90;102328.11;110480;1268;23067;-50
2023/05/09 01:15:20;;;;;;;3.50;1.80;;;;;;;15.35;56.57;102326.15;110202;1275;22117;-50
2023/05/09 01:18:38;;;;;;;4.00;1.50;;;;;;;15.38;56.37;102328.55;110415;1275;22396;-50
2023/05/09 01:21:10;;;;;;;4.20;1.80;;;;;;;15.39;55.78;102325.06;110041;1275;22425;-50
2023/05/09 01:23:43;;;;;;;2.10;1.70;;;;;;;15.40;55.66;102325.70;109860;1280;23103;-50
2023/05/09 01:26:32;;;;;;;2.10;1.70;;;;;;;15.41;55.31;102322.05;110029;1275;22807;-50
2023/05/09 01:29:20;;;;;;;2.90;1.90;;;;;;;15.39;55.30;102323.12;110053;1275;22330;-50
2023/05/09 01:31:47;;;;;;;2.20;1.80;;;;;;;15.37;55.42;102326.48;110050;1273;22360;-50
2023/05/09 01:34:15;;;;;;;2.10;1.60;;;;;;;15.35;55.55;102325.48;109953;1278;22363;-50
2023/05/09 01:36:42;;;;;;;1.90;1.70;;;;;;;15.33;55.74;102326.20;109966;1277;22253;-50
2023/05/09 01:39:12;;;;;;;2.50;1.60;;;;;;;15.31;55.93;102326.40;109965;1276;22151;-50
2023/05/09 01:41:39;;;;;;;1.90;1.70;;;;;;;15.30;56.10;102323.80;109838;1280;23316;-50
2023/05/09 01:44:08;;;;;;;1.90;1.40;;;;;;;15.28;56.17;102324.01;109828;1280;22163;-51
2023/05/09 01:46:36;;;;;;;2.40;1.50;;;;;;;15.28;56.26;102324.35;109173;1278;1002525;-50
2023/05/09 01:49:04;;;;;;;2.30;1.40;;;;;;;15.29;56.20;102326.25;109816;1281;22326;-50
2023/05/09 01:51:31;;;;;;;3.70;2.10;;;;;;;15.32;56.25;102324.46;109980;1280;22158;-50
2023/05/09 01:53:58;;;;;;;1.60;1.40;;;;;;;15.34;56.48;102326.70;109860;1276;22381;-50
2023/05/09 01:56:25;;;;;;;2.00;1.70;;;;;;;15.35;56.18;102324.23;109902;1273;23173;-50
2023/05/09 01:58:53;;;;;;;2.00;1.40;;;;;;;15.36;55.49;102324.21;110049;1270;22144;-50
2023/05/09 02:01:20;;;;;;;1.50;1.40;;;;;;;15.37;55.07;102325.27;110170;1278;22321;-50
2023/05/09 02:03:49;;;;;;;1.40;1.30;;;;;;;15.37;54.78;102329.27;110160;1272;22174;-50
2023/05/09 02:06:17;;;;;;;1.80;1.40;;;;;;;15.36;54.27;102330.51;110072;1273;22185;-50
2023/05/09 02:08:44;;;;;;;2.20;1.50;;;;;;;15.36;54.07;102333.48;110184;1278;22295;-50
2023/05/09 02:11:11;;;;;;;3.10;1.40;;;;;;;15.36;54.12;102333.31;110050;1273;23159;-49
2023/05/09 02:13:38;;;;;;;3.50;2.00;;;;;;;15.34;54.34;102330.73;109240;1274;1002419;-50
2023/05/09 02:16:06;;;;;;;2.40;1.70;;;;;;;15.30;54.50;102329.04;109944;1277;22494;-50
2023/05/09 02:18:36;;;;;;;3.00;1.70;;;;;;;15.26;54.55;102329.13;110270;1271;22325;-50
2023/05/09 02:21:03;;;;;;;1.90;1.60;;;;;;;15.23;54.71;102330.89;109907;1277;22320;-50
2023/05/09 02:23:30;;;;;;;2.10;1.90;;;;;;;15.20;54.63;102331.99;109780;1275;279292;-50
2023/05/09 02:25:57;;;;;;;3.20;1.90;;;;;;;15.18;54.24;102332.73;109594;1269;1002218;-50
2023/05/09 02:28:24;;;;;;;3.70;2.10;;;;;;;15.15;54.07;102333.83;110309;1269;23042;-50
2023/05/09 02:30:51;;;;;;;3.10;1.70;;;;;;;15.12;54.12;102333.70;110497;1271;22879;-50
2023/05/09 02:33:18;;;;;;;4.40;1.60;;;;;;;15.11;54.31;102336.33;110456;1271;22358;-50
2023/05/09 02:35:45;;;;;;;3.50;1.90;;;;;;;15.14;54.34;102336.65;110532;1268;22457;-50
2023/05/09 02:38:12;;;;;;;2.80;2.20;;;;;;;15.16;54.49;102333.99;110555;1270;22155;-50
2023/05/09 02:40:41;;;;;;;3.70;2.00;;;;;;;15.17;54.42;102334.13;110548;1275;22287;-50
2023/05/09 02:43:08;;;;;;;3.00;1.70;;;;;;;15.18;54.63;102335.88;110387;1270;22333;-50
2023/05/09 02:45:35;;;;;;;3.80;1.80;;;;;;;15.19;54.71;102333.40;110324;1274;22316;-50
2023/05/09 02:48:03;;;;;;;3.00;1.70;;;;;;;15.18;54.58;102336.56;110562;1269;22378;-50
2023/05/09 02:50:34;;;;;;;3.20;1.80;;;;;;;15.16;54.48;102334.52;110481;1271;22405;-50
2023/05/09 02:53:01;;;;;;;4.10;2.20;;;;;;;15.15;54.60;102338.20;110554;1269;22837;-50
2023/05/09 02:55:28;;;;;;;2.70;1.70;;;;;;;15.15;54.66;102337.50;110453;1274;22109;-50
2023/05/09 02:57:55;;;;;;;3.40;2.20;;;;;;;15.16;55.25;102342.55;110436;1270;22133;-49
2023/05/09 03:00:39;;;;;;;2.90;1.80;;;;;;;15.15;55.52;102342.55;110475;1268;22163;-50
2023/05/09 03:03:06;;;;;;;3.30;1.90;;;;;;;15.15;55.71;102340.63;110380;1267;22340;-50
2023/05/09 03:05:33;;;;;;;2.90;1.80;;;;;;;15.16;55.71;102343.42;110420;1270;22236;-50
2023/05/09 03:08:00;;;;;;;3.00;2.00;;;;;;;15.16;55.58;102348.15;110433;1275;22438;-50
2023/05/09 03:10:27;;;;;;;3.40;1.90;;;;;;;15.16;55.22;102347.80;110302;1271;22346;-50
2023/05/09 03:12:54;;;;;;;2.20;2.00;;;;;;;15.15;54.55;102354.08;110424;1275;22400;-49
2023/05/09 03:15:22;;;;;;;2.50;1.90;;;;;;;15.18;54.31;102355.63;110431;1272;22156;-50
2023/05/09 03:17:49;;;;;;;3.50;2.00;;;;;;;15.19;53.94;102352.11;110430;1271;22354;-50
2023/05/09 03:20:16;;;;;;;2.40;1.70;;;;;;;15.21;53.85;102351.90;110540;1274;22134;-49
2023/05/09 03:22:43;;;;;;;3.20;1.80;;;;;;;15.22;53.95;102350.83;110439;1269;22137;-50
2023/05/09 03:25:10;;;;;;;1.70;1.50;;;;;;;15.24;53.63;102353.79;110437;1269;22366;-50
2023/05/09 03:27:38;;;;;;;1.80;1.60;;;;;;;15.25;53.51;102352.90;110489;1270;22107;-50
2023/05/09 03:30:07;;;;;;;2.10;1.60;;;;;;;15.28;53.55;102353.21;110308;1274;22567;-51
2023/05/09 03:32:34;;;;;;;3.60;2.00;;;;;;;15.30;53.36;102357.36;110540;1274;22160;-50
2023/05/09 03:35:02;;;;;;;2.20;1.80;;;;;;;15.32;53.17;102357.67;110200;1275;22148;-50
2023/05/09 03:37:29;;;;;;;2.10;1.40;;;;;;;15.37;53.01;102358.14;110103;1275;22396;-50
2023/05/09 03:39:56;;;;;;;1.80;1.70;;;;;;;15.42;52.87;102359.63;110457;1273;22337;-50
2023/05/09 03:42:23;;;;;;;3.70;1.90;;;;;;;15.50;53.07;102362.32;110570;1269;23103;-50
2023/05/09 03:44:52;;;;;;;3.00;2.30;;;;;;;15.56;54.25;102365.36;110432;1269;22968;-51
2023/05/09 03:47:20;;;;;;;4.70;2.70;;;;;;;15.55;54.85;102364.33;110604;1274;22125;-50
2023/05/09 03:49:47;;;;;;;3.90;2.70;;;;;;;15.50;55.20;102368.27;110306;1269;22339;-52
2023/05/09 03:52:16;;;;;;;4.60;2.50;;;;;;;15.44;55.57;102370.10;110507;1274;22395;-50
2023/05/09 03:54:44;;;;;;;4.20;2.70;;;;;;;15.38;56.07;102369.82;110523;1268;22300;-51
2023/05/09 03:57:11;;;;;;;4.30;2.60;;;;;;;15.31;56.46;102374.33;110478;1275;22472;-50
2023/05/09 03:59:39;;;;;;;4.40;3.00;;;;;;;15.23;56.68;102372.69;110365;1270;22275;-49
2023/05/09 04:02:06;;;;;;;3.20;2.90;;;;;;;15.15;56.90;102377.52;110367;1272;22108;-50
2023/05/09 04:04:33;;;;;;;3.20;2.90;;;;;;;15.09;57.01;102384.09;110250;1275;22331;-50
2023/05/09 04:07:01;;;;;;;5.60;2.90;;;;;;;15.04;57.32;102383.63;110296;1271;22958;-50
2023/05/09 04:09:29;;;;;;;4.40;2.90;;;;;;;15.00;57.50;102386.31;110355;1276;22325;-50
2023/05/09 04:11:56;;;;;;;3.60;2.80;;;;;;;14.96;57.53;102387.23;110365;1274;22140;-50
2023/05/09 04:14:23;;;;;;;4.40;2.60;;;;;;;14.93;57.46;102384.31;110485;1269;22121;-50
2023/05/09 04:16:50;;;;;;;3.00;2.70;;;;;;;14.89;57.56;102383.49;109676;1274;1002451;-50
2023/05/09 04:19:18;;;;;;;2.80;2.60;;;;;;;14.85;57.62;102385.83;110474;1268;22394;-50
2023/05/09 04:21:45;;;;;;;4.00;2.80;;;;;;;14.82;57.74;102387.63;110309;1266;22311;-50
2023/05/09 04:24:13;;;;;;;3.70;2.60;;;;;;;14.80;57.83;102388.86;110572;1270;22409;-50
2023/05/09 04:26:42;;;;;;;4.80;3.20;;;;;;;14.79;57.87;102391.84;110530;1274;22427;-50
2023/05/09 04:29:11;;;;;;;3.70;2.60;;;;;;;14.80;57.87;102397.59;110202;1276;22416;-51
2023/05/09 04:31:38;;;;;;;2.80;2.50;;;;;;;14.82;57.78;102396.88;110236;1272;22391;-50
2023/05/09 04:34:06;;;;;;;4.70;2.90;;;;;;;14.86;57.89;102396.83;110152;1276;23194;-50
2023/05/09 04:36:34;;;;;;;4.90;2.50;;;;;;;14.88;57.81;102401.52;110220;1276;23064;-50
2023/05/09 04:39:03;;;;;;;3.20;2.90;;;;;;;14.91;57.97;102397.98;110174;1273;22240;-50
2023/05/09 04:41:31;;;;;;;3.50;2.50;;;;;;;14.96;57.88;102399.83;109940;1277;22295;-50
2023/05/09 04:43:58;;;;;;;3.20;2.50;;;;;;;15.00;57.78;102398.88;110290;1272;22249;-49
2023/05/09 04:46:25;;;;;;;3.00;2.40;;;;;;;15.01;57.91;102397.66;110214;1269;22845;-50
2023/05/09 04:48:53;;;;;;;5.20;2.40;;;;;;;15.01;57.81;102393.98;110289;1270;22389;-50
2023/05/09 04:51:20;;;;;;;5.10;2.70;;;;;;;15.02;57.81;102390.30;110024;1270;22300;-50
2023/05/09 04:53:47;;;;;;;3.20;2.90;;;;;;;15.04;57.56;102395.00;110372;1273;23017;-50
2023/05/09 04:56:15;;;;;;;4.40;2.90;;;;;;;15.04;57.21;102395.52;110307;1275;23136;-50
2023/05/09 04:58:42;;;;;;;3.60;2.70;;;;;;;15.05;57.05;102394.46;110116;1276;22962;-50
2023/05/09 05:01:10;;;;;;;4.10;3.20;;;;;;;15.07;56.88;102400.55;110458;1271;22339;-50
2023/05/09 05:03:38;;;;;;;5.10;2.80;;;;;;;15.08;56.74;102402.28;110415;1272;22110;-50
2023/05/09 05:06:05;;;;;;;3.40;2.60;;;;;;;15.10;56.72;102403.99;110478;1269;22211;-49
2023/05/09 05:08:32;;;;;;;3.80;2.90;;;;;;;15.13;56.62;102402.72;110402;1272;22398;-50
2023/05/09 05:10:59;;;;;;;4.30;2.80;;;;;;;15.17;56.44;102406.50;110346;1273;22366;-49
2023/05/09 05:13:26;;;;;;;2.70;2.40;;;;;;;15.22;55.99;102408.35;110319;1266;22314;-50
2023/05/09 05:15:57;;;;;;;5.90;2.50;;;;;;;15.27;55.63;102405.31;110178;1272;22148;-50
2023/05/09 05:18:24;;;;;;;3.50;2.40;;;;;;;15.32;55.42;102400.17;110155;1277;22200;-51
2023/05/09 05:20:52;;;;;;;7.60;4.80;;;;;;;15.36;55.47;102408.14;110116;1269;22182;-50
2023/05/09 05:23:19;;;;;;;12.80;11.50;;;;;;;15.44;55.24;102411.73;110168;1277;22386;-50
2023/05/09 05:25:48;;;;;;;7.40;6.80;;;;;;;15.52;54.93;102409.86;110121;1274;22226;-49
2023/05/09 05:28:15;;;;;;;3.60;3.30;;;;;;;15.74;54.39;102409.48;109269;1278;1002432;-49
2023/05/09 05:30:43;;;;;;;3.50;2.80;;;;;;;16.07;53.26;102404.16;110178;1278;22281;-50
2023/05/09 05:33:10;;;;;;;2.30;2.10;;;;;;;16.44;52.31;102404.01;110089;1277;22857;-50
2023/05/09 05:35:37;;;;;;;3.20;2.70;;;;;;;16.83;50.92;102405.99;110135;1269;22348;-50
2023/05/09 05:38:04;;;;;;;3.00;1.90;;;;;;;17.21;49.18;102408.85;110018;1278;22523;-50
2023/05/09 05:40:31;;;;;;;2.30;1.90;;;;;;;17.58;48.04;102412.02;110120;1269;22158;-50
2023/05/09 05:43:00;;;;;;;4.00;2.40;;;;;;;17.97;47.33;102408.92;110160;1277;22202;-50
2023/05/09 05:45:29;;;;;;;2.40;2.10;;;;;;;18.36;46.18;102404.69;110017;1277;22305;-50
2023/05/09 05:47:57;;;;;;;2.60;2.10;;;;;;;18.65;45.25;102406.16;110479;1274;22873;-50
2023/05/09 05:50:24;;;;;;;3.30;2.50;;;;;;;18.90;44.60;102410.33;110511;1274;22383;-50
2023/05/09 05:52:51;;;;;;;2.30;2.10;;;;;;;19.17;43.47;102412.67;110419;1274;22421;-50
2023/05/09 05:55:18;;;;;;;3.00;2.00;;;;;;;19.40;42.77;102412.48;110434;1275;22385;-51
2023/05/09 05:57:46;;;;;;;3.50;2.10;;;;;;;19.63;41.59;102410.53;110438;1274;23084;-50
2023/05/09 06:00:15;;;;;;;4.10;2.10;;;;;;;19.82;40.90;102413.36;110424;1268;22125;-51
2023/05/09 06:02:48;;;;;;;2.40;2.00;;;;;;;19.94;40.06;102404.88;110247;1268;22142;-50
2023/05/09 06:05:20;;;;;;;3.00;2.30;;;;;;;19.98;39.87;102405.08;110345;1267;22278;-50
2023/05/09 06:07:49;;;;;;;3.30;2.10;;;;;;;19.99;40.16;102401.36;110404;1275;22286;-50
2023/05/09 06:10:16;;;;;;;4.30;1.90;;;;;;;20.04;40.34;102399.95;110584;1275;22282;-50
2023/05/09 06:12:43;;;;;;;4.30;2.00;;;;;;;20.17;40.53;102401.24;110388;1275;22331;-50
2023/05/09 06:15:11;;;;;;;3.90;2.00;;;;;;;20.37;39.78;102402.48;110441;1274;22130;-50
2023/05/09 06:17:40;;;;;;;2.00;1.80;;;;;;;20.51;39.41;102403.55;110510;1269;22938;-50
2023/05/09 06:20:07;;;;;;;2.20;1.90;;;;;;;20.58;38.97;102409.10;110454;1273;22449;-50
2023/05/09 06:22:34;;;;;;;3.00;2.10;;;;;;;20.59;38.83;102409.57;110595;1272;22317;-50
2023/05/09 06:25:02;;;;;;;4.10;2.10;;;;;;;20.56;38.84;102411.11;110573;1274;22272;-50
2023/05/09 06:27:29;;;;;;;4.80;2.20;;;;;;;20.51;39.05;102411.80;110619;1267;22318;-50
2023/05/09 06:29:56;;;;;;;2.20;1.60;;;;;;;20.47;39.54;102411.64;110496;1269;22485;-50
2023/05/09 06:32:23;;;;;;;3.30;1.90;;;;;;;20.51;39.52;102409.73;110315;1275;22226;-50
2023/05/09 06:34:51;;;;;;;4.30;1.80;;;;;;;20.59;39.46;102407.98;110470;1268;22139;-50
2023/05/09 06:37:18;;;;;;;3.50;1.90;;;;;;;20.65;39.35;102408.28;110522;1274;23289;-50
2023/05/09 06:39:45;;;;;;;2.90;2.00;;;;;;;20.77;39.33;102403.96;110549;1269;23159;-50
2023/05/09 06:42:12;;;;;;;3.30;2.00;;;;;;;20.86;39.11;102406.45;110565;1274;22913;-51
2023/05/09 06:44:39;;;;;;;3.30;2.30;;;;;;;20.85;38.36;102407.53;110577;1270;22949;-50
2023/05/09 06:47:06;;;;;;;2.60;1.80;;;;;;;20.86;39.05;102409.09;110537;1274;22303;-50
2023/05/09 06:49:33;;;;;;;2.80;1.60;;;;;;;21.02;39.22;102409.33;110543;1274;22416;-50
2023/05/09 06:52:00;;;;;;;3.70;2.00;;;;;;;21.23;38.78;102409.44;110550;1270;22717;-50
2023/05/09 06:54:27;;;;;;;2.80;1.90;;;;;;;21.31;38.10;102410.88;110549;1273;22137;-50
2023/05/09 06:56:54;;;;;;;2.90;2.00;;;;;;;21.39;38.20;102408.23;110518;1274;22464;-50
2023/05/09 06:59:21;;;;;;;5.30;1.90;;;;;;;21.60;37.94;102412.98;110546;1269;22193;-50
2023/05/09 07:01:48;;;;;;;3.70;2.00;;;;;;;21.75;37.42;102411.70;110555;1275;22103;-50
2023/05/09 07:04:15;;;;;;;3.80;2.10;;;;;;;21.71;37.17;102413.94;110432;1270;22124;-50
2023/05/09 07:06:42;;;;;;;3.20;1.80;;;;;;;21.67;36.50;102407.58;110590;1269;22786;-50
2023/05/09 07:09:09;;;;;;;3.00;1.90;;;;;;;21.61;36.71;102408.39;110434;1275;22835;-51
2023/05/09 07:11:36;;;;;;;3.40;2.00;;;;;;;21.63;36.47;102406.17;110551;1270;22410;-50
2023/05/09 07:14:03;;;;;;;2.20;1.80;;;;;;;21.66;35.89;102402.35;110525;1273;22387;-50
2023/05/09 07:16:31;;;;;;;4.90;1.90;;;;;;;21.71;36.20;102405.14;110582;1267;22134;-50
2023/05/09 07:19:01;;;;;;;2.30;2.00;;;;;;;21.88;35.91;102398.79;110536;1269;22118;-50
2023/05/09 07:21:28;;;;;;;3.20;2.40;;;;;;;21.99;36.54;102397.06;110510;1267;22426;-51
2023/05/09 07:23:55;;;;;;;2.30;2.10;;;;;;;22.09;35.83;102395.04;110399;1268;22537;-50
2023/05/09 07:26:22;;;;;;;5.90;2.20;;;;;;;22.14;35.52;102396.42;110540;1269;22352;-50
2023/05/09 07:28:49;;;;;;;3.10;2.10;;;;;;;22.22;35.56;102395.71;110582;1274;22407;-50
2023/05/09 07:31:16;;;;;;;3.30;2.10;;;;;;;22.37;34.84;102399.23;110546;1275;22122;-50
2023/05/09 07:33:43;;;;;;;6.00;1.90;;;;;;;22.44;34.14;102397.16;110204;1273;22295;-50
2023/05/09 07:36:12;;;;;;;3.90;1.90;;;;;;;22.27;34.17;102399.35;110538;1273;22349;-50
2023/05/09 07:38:39;;;;;;;3.10;2.20;;;;;;;22.01;34.38;102399.11;110538;1275;22264;-49
2023/05/09 07:41:06;;;;;;;2.70;1.80;;;;;;;21.72;35.34;102400.50;110528;1272;22320;-50
2023/05/09 07:43:33;;;;;;;4.00;2.00;;;;;;;21.47;36.27;102395.52;110547;1272;22268;-50
2023/05/09 07:46:00;;;;;;;4.80;2.30;;;;;;;21.31;36.40;102394.48;110280;1274;22282;-49
2023/05/09 07:48:27;;;;;;;2.10;1.90;;;;;;;21.10;36.90;102395.79;110523;1274;22106;-49
2023/05/09 07:50:54;;;;;;;4.70;2.00;;;;;;;20.88;37.56;102397.00;110503;1275;23049;-49
2023/05/09 07:53:21;;;;;;;5.10;1.90;;;;;;;20.73;37.88;102396.18;110527;1270;22109;-49
2023/05/09 07:55:49;;;;;;;2.20;2.00;;;;;;;20.57;37.96;102391.65;110430;1275;22137;-49
2023/05/09 07:58:16;;;;;;;3.70;1.70;;;;;;;20.42;39.12;102394.88;110541;1270;22415;-49
2023/05/09 08:00:43;;;;;;;3.80;2.00;;;;;;;20.36;39.63;102391.41;110344;1268;22357;-50
2023/05/09 08:03:10;;;;;;;4.60;2.40;;;;;;;20.32;40.03;102389.44;110319;1274;22479;-50
2023/05/09 08:05:37;;;;;;;3.20;2.20;;;;;;;20.30;40.58;102388.28;110250;1275;22948;-50
2023/05/09 08:08:04;;;;;;;3.40;2.40;;;;;;;20.27;41.10;102387.16;110573;1274;22458;-49
2023/05/09 08:10:32;;;;;;;4.00;2.20;;;;;;;20.26;41.44;102387.73;110551;1272;22278;-49
2023/05/09 08:12:59;;;;;;;3.50;1.90;;;;;;;20.29;41.77;102388.67;110478;1275;22143;-49
2023/05/09 08:15:26;;;;;;;4.70;2.40;;;;;;;20.31;42.03;102388.60;110169;1273;22848;-49
2023/05/09 08:17:53;;;;;;;4.20;2.60;;;;;;;20.32;42.27;102385.55;110425;1275;22275;-49
2023/05/09 08:20:20;;;;;;;4.10;2.30;;;;;;;20.28;42.16;102386.41;110401;1273;22814;-49
2023/05/09 08:22:47;;;;;;;4.60;2.10;;;;;;;20.19;42.51;102384.43;110551;1271;23110;-49
2023/05/09 08:25:17;;;;;;;3.40;2.40;;;;;;;20.12;42.91;102380.09;110252;1275;23207;-49
2023/05/09 08:27:44;;;;;;;2.90;2.30;;;;;;;20.07;42.74;102380.28;110324;1270;22116;-49
2023/05/09 08:30:11;;;;;;;3.40;2.50;;;;;;;19.98;41.88;102381.13;110502;1270;22163;-49
2023/05/09 08:32:38;;;;;;;5.20;2.30;;;;;;;19.85;42.28;102375.42;110499;1270;22338;-49
2023/05/09 08:35:07;;;;;;;3.70;2.30;;;;;;;19.74;42.85;102377.73;110452;1269;22407;-49
2023/05/09 08:37:35;;;;;;;3.10;2.10;;;;;;;19.69;42.68;102378.63;110510;1275;22173;-49
2023/05/09 08:40:06;;;;;;;2.20;2.10;;;;;;;19.63;42.65;102378.63;110579;1275;22960;-49
2023/05/09 08:42:35;;;;;;;4.10;2.40;;;;;;;19.52;42.75;102379.70;110596;1269;22288;-49
2023/05/09 08:45:09;;;;;;;3.70;2.40;;;;;;;19.40;42.69;102379.92;110335;1267;23149;-49
2023/05/09 08:47:36;;;;;;;7.30;2.50;;;;;;;19.29;42.82;102382.02;110543;1270;22243;-49
2023/05/09 08:50:04;;;;;;;3.90;2.10;;;;;;;19.22;42.57;102379.06;110444;1267;22152;-49
2023/05/09 08:52:32;;;;;;;6.20;2.10;;;;;;;19.17;41.43;102381.00;110577;1269;22371;-49
2023/05/09 08:55:00;;;;;;;3.80;2.20;;;;;;;19.11;40.05;102378.21;110505;1275;22271;-49
2023/05/09 08:57:27;;;;;;;2.60;2.00;;;;;;;18.99;40.17;102379.45;110269;1272;22329;-49
2023/05/09 08:59:54;;;;;;;3.60;2.10;;;;;;;18.88;40.34;102379.09;109758;1275;1002806;-50
2023/05/09 09:02:21;;;;;;;2.00;1.80;;;;;;;18.84;40.14;102376.59;110421;1275;22345;-49
2023/05/09 09:04:48;;;;;;;3.30;2.10;;;;;;;18.84;40.50;102378.15;110591;1269;22198;-49
2023/05/09 09:07:15;;;;;;;3.70;2.70;;;;;;;18.91;41.77;102376.36;110497;1271;22272;-50
2023/05/09 09:09:46;;;;;;;4.20;2.10;;;;;;;19.02;41.91;102374.09;110399;1266;22371;-50
2023/05/09 09:12:14;;;;;;;3.00;2.50;;;;;;;19.11;42.37;102376.08;110503;1275;22263;-50
2023/05/09 09:14:45;;;;;;;5.10;2.50;;;;;;;19.19;42.37;102376.02;110397;1270;22378;-49
2023/05/09 09:17:15;;;;;;;2.90;2.10;;;;;;;19.24;42.04;102379.55;110407;1270;23180;-49
2023/05/09 09:19:42;;;;;;;2.50;2.30;;;;;;;19.31;42.26;102378.45;110416;1276;22122;-50
2023/05/09 09:22:12;;;;;;;4.00;2.70;;;;;;;19.32;42.13;102374.70;110465;1274;22173;-50
2023/05/09 09:24:39;;;;;;;4.20;2.50;;;;;;;19.29;41.95;102373.23;110007;1275;22136;-50
2023/05/09 09:27:06;;;;;;;3.00;2.50;;;;;;;19.21;42.50;102380.15;110497;1269;22405;-50
2023/05/09 09:29:33;;;;;;;3.90;2.50;;;;;;;19.20;43.12;102382.30;110356;1275;22425;-50
2023/05/09 09:32:04;;;;;;;7.10;2.70;;;;;;;19.34;43.58;102376.07;110394;1275;22334;-50
2023/05/09 09:34:31;;;;;;;4.70;2.80;;;;;;;19.41;43.09;102374.95;110554;1270;22134;-49
2023/05/09 09:36:58;;;;;;;5.30;2.80;;;;;;;19.42;43.16;102375.29;110490;1273;22323;-49
2023/05/09 09:39:25;;;;;;;5.10;3.10;;;;;;;19.48;43.41;102376.15;110459;1270;22124;-49
2023/05/09 09:41:52;;;;;;;7.50;2.90;;;;;;;19.58;43.20;102373.39;110485;1270;23042;-50
2023/05/09 09:44:20;;;;;;;7.30;3.00;;;;;;;19.64;43.02;102378.45;110386;1276;23147;-49
2023/05/09 09:46:52;;;;;;;4.40;3.10;;;;;;;19.69;42.92;102380.04;108983;1276;1003039;-49
2023/05/09 09:49:20;;;;;;;7.10;3.00;;;;;;;19.76;43.57;102373.95;110353;1274;22334;-49
2023/05/09 09:51:51;;;;;;;4.40;2.70;;;;;;;19.88;43.67;102369.84;110537;1276;22434;-49
2023/05/09 09:54:18;;;;;;;5.70;2.80;;;;;;;20.04;43.96;102374.38;110113;1276;22453;-49
2023/05/09 09:56:50;;;;;;;4.00;2.70;;;;;;;20.16;43.46;102378.88;110531;1273;22967;-49
2023/05/09 09:59:23;;;;;;;2.90;2.70;;;;;;;20.26;43.29;102374.84;110569;1269;22408;-49
2023/05/09 10:02:01;;;;;;;4.90;2.80;;;;;;;20.34;42.97;102377.38;110499;1275;22308;-49
2023/05/09 10:04:34;;;;;;;4.50;3.10;;;;;;;20.40;42.75;102381.73;110559;1269;22176;-49
2023/05/09 10:07:03;;;;;;;5.10;3.00;;;;;;;20.46;42.88;102379.77;110397;1270;22319;-49
2023/05/09 10:09:31;;;;;;;4.60;2.80;;;;;;;20.45;42.50;102382.95;110196;1273;22610;-49
2023/05/09 10:12:02;;;;;;;2.80;2.40;;;;;;;20.44;42.34;102382.11;110340;1276;22881;-50
2023/05/09 10:14:30;;;;;;;5.20;3.00;;;;;;;20.41;42.16;102377.27;110451;1269;22396;-49
2023/05/09 10:17:01;;;;;;;4.40;3.00;;;;;;;20.41;42.39;102378.02;110302;1267;22216;-49
2023/05/09 10:19:29;;;;;;;3.60;3.10;;;;;;;20.38;42.20;102374.38;110311;1269;22443;-49
2023/05/09 10:22:04;;;;;;;5.90;3.00;;;;;;;20.38;41.84;102373.17;110616;1267;22888;-51
2023/05/09 10:25:12;;;;;;;6.00;3.00;;;;;;;20.37;42.10;102373.38;110461;1275;22137;-50
2023/05/09 10:27:40;;;;;;;4.80;3.00;;;;;;;20.37;41.78;102371.10;109976;1273;22184;-50
2023/05/09 10:30:11;;;;;;;3.80;3.10;;;;;;;20.37;41.36;102367.93;110000;1275;22334;-50
2023/05/09 10:32:42;;;;;;;5.50;2.80;;;;;;;20.35;41.39;102367.63;109947;1273;22162;-51
2023/05/09 10:35:09;;;;;;;3.40;2.60;;;;;;;20.34;41.98;102369.63;109993;1281;22279;-50
2023/05/09 10:37:36;;;;;;;4.70;2.80;;;;;;;20.35;41.27;102370.64;109966;1276;22462;-49
2023/05/09 10:40:04;;;;;;;5.00;3.40;;;;;;;20.35;41.11;102372.23;109955;1276;22845;-50
2023/05/09 10:42:31;;;;;;;8.30;3.80;;;;;;;20.35;41.06;102370.98;109952;1273;22580;-50
2023/05/09 10:44:58;;;;;;;4.40;2.90;;;;;;;20.35;41.18;102367.48;109985;1281;22328;-50
2023/05/09 10:47:26;;;;;;;3.70;2.90;;;;;;;20.36;40.78;102365.65;109956;1276;22172;-49
2023/05/09 10:49:53;;;;;;;3.10;2.70;;;;;;;20.27;40.54;102364.95;109992;1273;22156;-50
2023/05/09 10:52:21;;;;;;;5.50;2.50;;;;;;;20.27;40.76;102363.36;109975;1279;22128;-49
2023/05/09 10:55:02;;;;;;;3.90;2.70;;;;;;;20.36;40.96;102363.20;109767;1279;22258;-49
2023/05/09 10:57:30;;;;;;;3.10;2.50;;;;;;;20.37;40.73;102361.78;109819;1285;22133;-49
2023/05/09 10:59:57;;;;;;;3.00;2.70;;;;;;;20.44;40.83;102360.98;109763;1285;22159;-50
2023/05/09 11:02:33;;;;;;;5.30;2.90;;;;;;;20.48;40.27;102359.60;109768;1279;22839;-49
2023/05/09 11:05:14;;;;;;;4.80;2.60;;;;;;;20.49;39.78;102357.07;109308;1271;1002454;-50
2023/05/09 11:07:42;;;;;;;2.90;2.60;;;;;;;20.51;39.62;102361.92;110181;1272;22417;-49
2023/05/09 11:10:13;;;;;;;5.10;3.10;;;;;;;20.53;40.00;102360.98;110041;1279;22157;-50
2023/05/09 11:12:56;;;;;;;6.30;3.10;;;;;;;20.55;39.94;102364.41;110079;1279;22809;-50
2023/05/09 11:15:25;;;;;;;6.10;2.90;;;;;;;20.51;40.18;102361.75;110044;1273;22418;-50
2023/05/09 11:18:11;;;;;;;4.10;2.60;;;;;;;20.47;39.77;102361.91;110120;1273;22156;-50
2023/05/09 11:20:42;;;;;;;3.60;2.40;;;;;;;20.47;40.10;102364.91;110038;1273;22199;-50
2023/05/09 11:23:12;;;;;;;5.90;2.80;;;;;;;20.49;40.13;102363.40;110182;1272;22603;-50